sensor_id;sensor_type;location;lat;lon;timestamp;pressure;altitude;pressure_sealevel;temperature;humidity
47592;BME280;33317;33.356;-117.184;2022-07-10T00:00:40;99388.62;;;29.51;23.59
47592;BME280;33317;33.356;-117.184;2022-07-10T00:03:08;99387.91;;;29.46;23.13
47592;BME280;33317;33.356;-117.184;2022-07-10T00:05:37;99385.07;;;29.40;23.15
47592;BME280;33317;33.356;-117.184;2022-07-10T00:08:05;99390.04;;;29.87;23.11
47592;BME280;33317;33.356;-117.184;2022-07-10T00:10:33;99388.17;;;30.12;23.00
47592;BME280;33317;33.356;-117.184;2022-07-10T00:13:02;99390.39;;;30.34;23.26
47592;BME280;33317;33.356;-117.184;2022-07-10T00:15:30;99389.30;;;30.00;23.23
47592;BME280;33317;33.356;-117.184;2022-07-10T00:17:58;99386.96;;;29.71;23.45
47592;BME280;33317;33.356;-117.184;2022-07-10T00:20:27;99387.99;;;29.71;23.45
47592;BME280;33317;33.356;-117.184;2022-07-10T00:22:56;99385.53;;;29.69;23.79
47592;BME280;33317;33.356;-117.184;2022-07-10T00:25:25;99384.02;;;29.69;23.27
47592;BME280;33317;33.356;-117.184;2022-07-10T00:27:54;99382.33;;;29.19;23.36
47592;BME280;33317;33.356;-117.184;2022-07-10T00:30:22;99382.94;;;29.38;23.30
47592;BME280;33317;33.356;-117.184;2022-07-10T00:32:51;99381.31;;;29.64;23.29
47592;BME280;33317;33.356;-117.184;2022-07-10T00:35:20;99375.68;;;28.97;23.72
47592;BME280;33317;33.356;-117.184;2022-07-10T00:37:48;99374.18;;;28.82;23.72
47592;BME280;33317;33.356;-117.184;2022-07-10T00:40:17;99374.12;;;29.34;23.74
47592;BME280;33317;33.356;-117.184;2022-07-10T00:42:45;99371.09;;;29.36;23.27
47592;BME280;33317;33.356;-117.184;2022-07-10T00:45:14;99370.54;;;29.45;22.95
47592;BME280;33317;33.356;-117.184;2022-07-10T00:47:42;99366.23;;;29.72;23.19
47592;BME280;33317;33.356;-117.184;2022-07-10T00:50:10;99366.65;;;29.69;22.77
47592;BME280;33317;33.356;-117.184;2022-07-10T00:52:39;99366.06;;;29.24;22.76
47592;BME280;33317;33.356;-117.184;2022-07-10T00:55:10;99360.68;;;29.59;22.90
47592;BME280;33317;33.356;-117.184;2022-07-10T00:57:39;99355.36;;;29.80;22.76
47592;BME280;33317;33.356;-117.184;2022-07-10T01:00:09;99356.06;;;29.97;22.70
47592;BME280;33317;33.356;-117.184;2022-07-10T01:02:42;99352.67;;;29.53;23.73
47592;BME280;33317;33.356;-117.184;2022-07-10T01:05:12;99357.84;;;29.17;23.88
47592;BME280;33317;33.356;-117.184;2022-07-10T01:07:41;99359.92;;;29.35;23.86
47592;BME280;33317;33.356;-117.184;2022-07-10T01:10:11;99362.03;;;29.33;23.80
47592;BME280;33317;33.356;-117.184;2022-07-10T01:12:39;99365.43;;;28.92;24.05
47592;BME280;33317;33.356;-117.184;2022-07-10T01:15:09;99367.01;;;28.77;24.10
47592;BME280;33317;33.356;-117.184;2022-07-10T01:17:38;99365.41;;;28.77;24.38
47592;BME280;33317;33.356;-117.184;2022-07-10T01:20:07;99364.72;;;29.39;23.94
47592;BME280;33317;33.356;-117.184;2022-07-10T01:22:37;99368.72;;;29.78;23.85
47592;BME280;33317;33.356;-117.184;2022-07-10T01:25:06;99369.60;;;30.22;23.44
47592;BME280;33317;33.356;-117.184;2022-07-10T01:27:35;99370.95;;;29.24;24.33
47592;BME280;33317;33.356;-117.184;2022-07-10T01:30:06;99374.69;;;28.88;24.37
47592;BME280;33317;33.356;-117.184;2022-07-10T01:32:40;99373.59;;;28.81;24.37
47592;BME280;33317;33.356;-117.184;2022-07-10T01:35:09;99378.41;;;28.76;24.32
47592;BME280;33317;33.356;-117.184;2022-07-10T01:37:38;99380.62;;;29.19;24.16
47592;BME280;33317;33.356;-117.184;2022-07-10T01:40:09;99378.97;;;29.69;23.92
47592;BME280;33317;33.356;-117.184;2022-07-10T01:42:39;99382.02;;;30.12;23.42
47592;BME280;33317;33.356;-117.184;2022-07-10T01:45:09;99384.93;;;29.43;23.61
47592;BME280;33317;33.356;-117.184;2022-07-10T01:47:38;99394.53;;;28.97;23.95
47592;BME280;33317;33.356;-117.184;2022-07-10T01:50:09;99401.71;;;28.65;24.09
47592;BME280;33317;33.356;-117.184;2022-07-10T01:52:38;99395.31;;;28.86;23.96
47592;BME280;33317;33.356;-117.184;2022-07-10T01:55:07;99387.39;;;29.16;23.49
47592;BME280;33317;33.356;-117.184;2022-07-10T01:57:35;99387.19;;;29.61;23.25
47592;BME280;33317;33.356;-117.184;2022-07-10T02:00:05;99388.41;;;29.62;23.36
47592;BME280;33317;33.356;-117.184;2022-07-10T02:02:34;99386.96;;;29.92;23.20
47592;BME280;33317;33.356;-117.184;2022-07-10T02:05:02;99380.24;;;29.80;23.18
47592;BME280;33317;33.356;-117.184;2022-07-10T02:07:31;99386.87;;;28.94;23.36
47592;BME280;33317;33.356;-117.184;2022-07-10T02:10:00;99388.30;;;29.09;23.11
47592;BME280;33317;33.356;-117.184;2022-07-10T02:12:28;99388.96;;;28.78;23.96
47592;BME280;33317;33.356;-117.184;2022-07-10T02:15:03;99390.01;;;28.99;23.72
47592;BME280;33317;33.356;-117.184;2022-07-10T02:17:31;99391.16;;;29.72;23.42
47592;BME280;33317;33.356;-117.184;2022-07-10T02:20:00;99389.68;;;29.68;22.71
47592;BME280;33317;33.356;-117.184;2022-07-10T02:22:28;99396.28;;;28.60;24.04
47592;BME280;33317;33.356;-117.184;2022-07-10T02:24:56;99398.68;;;28.53;23.83
47592;BME280;33317;33.356;-117.184;2022-07-10T02:27:25;99399.26;;;28.80;24.17
47592;BME280;33317;33.356;-117.184;2022-07-10T02:29:53;99396.86;;;29.09;23.78
47592;BME280;33317;33.356;-117.184;2022-07-10T02:32:27;99397.00;;;29.55;23.55
47592;BME280;33317;33.356;-117.184;2022-07-10T02:34:56;99400.01;;;29.81;23.55
47592;BME280;33317;33.356;-117.184;2022-07-10T02:37:24;99404.43;;;29.68;23.47
47592;BME280;33317;33.356;-117.184;2022-07-10T02:39:52;99408.63;;;29.45;23.29
47592;BME280;33317;33.356;-117.184;2022-07-10T02:42:20;99419.26;;;28.46;24.05
47592;BME280;33317;33.356;-117.184;2022-07-10T02:44:49;99419.36;;;28.46;24.20
47592;BME280;33317;33.356;-117.184;2022-07-10T02:47:17;99412.51;;;28.90;23.51
47592;BME280;33317;33.356;-117.184;2022-07-10T02:49:48;99401.82;;;29.06;23.14
47592;BME280;33317;33.356;-117.184;2022-07-10T02:52:17;99403.69;;;29.36;23.22
47592;BME280;33317;33.356;-117.184;2022-07-10T02:54:59;99407.13;;;29.63;22.99
47592;BME280;33317;33.356;-117.184;2022-07-10T02:57:32;99405.51;;;29.22;23.72
47592;BME280;33317;33.356;-117.184;2022-07-10T03:00:01;99407.25;;;29.10;23.40
47592;BME280;33317;33.356;-117.184;2022-07-10T03:02:30;99415.05;;;29.29;23.39
47592;BME280;33317;33.356;-117.184;2022-07-10T03:04:59;99425.40;;;29.04;23.50
47592;BME280;33317;33.356;-117.184;2022-07-10T03:07:28;99424.42;;;28.89;23.62
47592;BME280;33317;33.356;-117.184;2022-07-10T03:10:04;99421.25;;;29.26;23.32
47592;BME280;33317;33.356;-117.184;2022-07-10T03:12:33;99418.59;;;29.18;23.04
47592;BME280;33317;33.356;-117.184;2022-07-10T03:15:07;99423.80;;;29.33;23.22
47592;BME280;33317;33.356;-117.184;2022-07-10T03:17:36;99430.75;;;29.48;23.20
47592;BME280;33317;33.356;-117.184;2022-07-10T03:20:12;99433.66;;;29.38;23.27
47592;BME280;33317;33.356;-117.184;2022-07-10T03:22:46;99429.74;;;29.56;22.97
47592;BME280;33317;33.356;-117.184;2022-07-10T03:25:15;99434.87;;;28.58;23.97
47592;BME280;33317;33.356;-117.184;2022-07-10T03:27:46;99436.62;;;28.47;24.72
47592;BME280;33317;33.356;-117.184;2022-07-10T03:30:23;99437.18;;;28.35;24.47
47592;BME280;33317;33.356;-117.184;2022-07-10T03:32:58;99434.62;;;29.07;23.74
47592;BME280;33317;33.356;-117.184;2022-07-10T03:35:34;99430.62;;;29.11;23.54
47592;BME280;33317;33.356;-117.184;2022-07-10T03:38:08;99429.91;;;29.14;23.40
47592;BME280;33317;33.356;-117.184;2022-07-10T03:40:42;99432.76;;;29.36;23.51
47592;BME280;33317;33.356;-117.184;2022-07-10T03:43:12;99437.75;;;29.26;23.16
47592;BME280;33317;33.356;-117.184;2022-07-10T03:45:42;99436.25;;;28.99;23.69
47592;BME280;33317;33.356;-117.184;2022-07-10T03:48:12;99442.19;;;28.14;25.09
47592;BME280;33317;33.356;-117.184;2022-07-10T03:50:43;99443.09;;;27.79;25.75
47592;BME280;33317;33.356;-117.184;2022-07-10T03:53:16;99445.92;;;28.07;25.54
47592;BME280;33317;33.356;-117.184;2022-07-10T03:55:52;99449.67;;;27.80;25.42
47592;BME280;33317;33.356;-117.184;2022-07-10T03:58:22;99455.28;;;27.88;25.15
47592;BME280;33317;33.356;-117.184;2022-07-10T04:00:51;99457.85;;;28.63;24.59
47592;BME280;33317;33.356;-117.184;2022-07-10T04:03:21;99456.87;;;28.26;24.28
47592;BME280;33317;33.356;-117.184;2022-07-10T04:05:51;99459.18;;;27.75;25.02
47592;BME280;33317;33.356;-117.184;2022-07-10T04:08:32;99467.34;;;28.36;24.74
47592;BME280;33317;33.356;-117.184;2022-07-10T04:11:05;99475.76;;;28.78;24.23
47592;BME280;33317;33.356;-117.184;2022-07-10T04:13:39;99474.35;;;28.55;24.59
47592;BME280;33317;33.356;-117.184;2022-07-10T04:16:12;99479.71;;;29.02;24.40
47592;BME280;33317;33.356;-117.184;2022-07-10T04:18:53;99479.83;;;29.16;24.42
47592;BME280;33317;33.356;-117.184;2022-07-10T04:21:29;99474.23;;;29.49;23.68
47592;BME280;33317;33.356;-117.184;2022-07-10T04:23:58;99481.00;;;29.04;23.37
47592;BME280;33317;33.356;-117.184;2022-07-10T04:26:31;99484.81;;;28.27;24.20
47592;BME280;33317;33.356;-117.184;2022-07-10T04:29:00;99481.62;;;28.34;24.58
47592;BME280;33317;33.356;-117.184;2022-07-10T04:31:28;99482.08;;;28.54;24.21
47592;BME280;33317;33.356;-117.184;2022-07-10T04:34:05;99480.80;;;28.76;24.09
47592;BME280;33317;33.356;-117.184;2022-07-10T04:36:38;99481.20;;;28.44;24.28
47592;BME280;33317;33.356;-117.184;2022-07-10T04:39:07;99480.19;;;28.55;24.17
47592;BME280;33317;33.356;-117.184;2022-07-10T04:41:38;99479.55;;;28.73;23.67
47592;BME280;33317;33.356;-117.184;2022-07-10T04:44:15;99485.64;;;28.80;23.34
47592;BME280;33317;33.356;-117.184;2022-07-10T04:46:46;99490.85;;;28.80;23.36
47592;BME280;33317;33.356;-117.184;2022-07-10T04:49:20;99491.70;;;28.67;23.50
47592;BME280;33317;33.356;-117.184;2022-07-10T04:51:49;99494.68;;;28.69;23.69
47592;BME280;33317;33.356;-117.184;2022-07-10T04:54:20;99498.42;;;28.78;23.75
47592;BME280;33317;33.356;-117.184;2022-07-10T04:56:48;99499.31;;;28.86;23.83
47592;BME280;33317;33.356;-117.184;2022-07-10T04:59:16;99500.30;;;28.63;23.63
47592;BME280;33317;33.356;-117.184;2022-07-10T05:01:53;99503.33;;;28.83;23.89
47592;BME280;33317;33.356;-117.184;2022-07-10T05:04:28;99506.60;;;28.59;24.03
47592;BME280;33317;33.356;-117.184;2022-07-10T05:06:57;99507.68;;;28.80;24.22
47592;BME280;33317;33.356;-117.184;2022-07-10T05:09:26;99510.96;;;28.75;24.33
47592;BME280;33317;33.356;-117.184;2022-07-10T05:12:01;99509.46;;;28.68;24.45
47592;BME280;33317;33.356;-117.184;2022-07-10T05:14:32;99510.94;;;28.63;24.48
47592;BME280;33317;33.356;-117.184;2022-07-10T05:17:06;99507.35;;;28.60;24.65
47592;BME280;33317;33.356;-117.184;2022-07-10T05:19:37;99508.28;;;28.65;24.52
47592;BME280;33317;33.356;-117.184;2022-07-10T05:22:06;99510.39;;;28.68;24.68
47592;BME280;33317;33.356;-117.184;2022-07-10T05:24:41;99507.41;;;28.66;24.79
47592;BME280;33317;33.356;-117.184;2022-07-10T05:27:15;99505.13;;;28.76;24.75
47592;BME280;33317;33.356;-117.184;2022-07-10T05:29:48;99505.75;;;28.84;24.66
47592;BME280;33317;33.356;-117.184;2022-07-10T05:32:17;99504.24;;;28.71;24.59
47592;BME280;33317;33.356;-117.184;2022-07-10T05:34:47;99507.54;;;28.94;24.84
47592;BME280;33317;33.356;-117.184;2022-07-10T05:37:21;99510.38;;;29.09;24.77
47592;BME280;33317;33.356;-117.184;2022-07-10T05:39:49;99512.15;;;28.53;24.94
47592;BME280;33317;33.356;-117.184;2022-07-10T05:42:17;99514.32;;;28.74;24.84
47592;BME280;33317;33.356;-117.184;2022-07-10T05:44:52;99513.46;;;28.54;24.95
47592;BME280;33317;33.356;-117.184;2022-07-10T05:47:28;99512.21;;;28.78;24.93
47592;BME280;33317;33.356;-117.184;2022-07-10T05:49:56;99511.78;;;28.75;24.96
47592;BME280;33317;33.356;-117.184;2022-07-10T05:52:26;99509.88;;;28.53;25.02
47592;BME280;33317;33.356;-117.184;2022-07-10T05:54:56;99509.52;;;28.75;25.09
47592;BME280;33317;33.356;-117.184;2022-07-10T05:57:25;99509.80;;;28.52;25.14
47592;BME280;33317;33.356;-117.184;2022-07-10T05:59:54;99505.46;;;28.56;25.10
47592;BME280;33317;33.356;-117.184;2022-07-10T06:02:22;99500.71;;;28.58;25.13
47592;BME280;33317;33.356;-117.184;2022-07-10T06:04:51;99500.97;;;28.77;25.12
47592;BME280;33317;33.356;-117.184;2022-07-10T06:07:19;99502.25;;;28.74;25.30
47592;BME280;33317;33.356;-117.184;2022-07-10T06:09:48;99501.83;;;28.45;25.39
47592;BME280;33317;33.356;-117.184;2022-07-10T06:12:21;99502.78;;;28.66;25.38
47592;BME280;33317;33.356;-117.184;2022-07-10T06:14:51;99500.17;;;28.66;25.45
47592;BME280;33317;33.356;-117.184;2022-07-10T06:17:20;99496.69;;;28.23;25.50
47592;BME280;33317;33.356;-117.184;2022-07-10T06:19:48;99497.76;;;28.50;25.44
47592;BME280;33317;33.356;-117.184;2022-07-10T06:22:17;99498.53;;;28.74;25.58
47592;BME280;33317;33.356;-117.184;2022-07-10T06:24:45;99498.32;;;28.72;25.59
47592;BME280;33317;33.356;-117.184;2022-07-10T06:27:14;99498.14;;;28.73;25.58
47592;BME280;33317;33.356;-117.184;2022-07-10T06:29:42;99499.54;;;28.45;25.65
47592;BME280;33317;33.356;-117.184;2022-07-10T06:32:11;99499.19;;;28.83;25.91
47592;BME280;33317;33.356;-117.184;2022-07-10T06:34:39;99496.08;;;28.57;25.85
47592;BME280;33317;33.356;-117.184;2022-07-10T06:37:08;99493.72;;;28.53;25.84
47592;BME280;33317;33.356;-117.184;2022-07-10T06:39:37;99494.24;;;28.47;26.14
47592;BME280;33317;33.356;-117.184;2022-07-10T06:42:06;99494.42;;;28.41;26.07
47592;BME280;33317;33.356;-117.184;2022-07-10T06:44:34;99497.40;;;28.38;26.11
47592;BME280;33317;33.356;-117.184;2022-07-10T06:47:03;99496.64;;;28.34;26.22
47592;BME280;33317;33.356;-117.184;2022-07-10T06:49:32;99494.78;;;28.33;26.26
47592;BME280;33317;33.356;-117.184;2022-07-10T06:52:00;99490.99;;;28.27;26.24
47592;BME280;33317;33.356;-117.184;2022-07-10T06:54:28;99492.47;;;28.26;26.42
47592;BME280;33317;33.356;-117.184;2022-07-10T06:56:57;99490.88;;;28.55;26.42
47592;BME280;33317;33.356;-117.184;2022-07-10T06:59:25;99490.10;;;28.26;26.47
47592;BME280;33317;33.356;-117.184;2022-07-10T07:01:54;99487.31;;;28.17;26.34
47592;BME280;33317;33.356;-117.184;2022-07-10T07:04:22;99484.04;;;28.35;26.35
47592;BME280;33317;33.356;-117.184;2022-07-10T07:06:52;99480.55;;;28.30;26.42
47592;BME280;33317;33.356;-117.184;2022-07-10T07:09:20;99478.94;;;28.24;26.46
47592;BME280;33317;33.356;-117.184;2022-07-10T07:11:49;99474.20;;;28.44;26.58
47592;BME280;33317;33.356;-117.184;2022-07-10T07:14:17;99469.66;;;28.20;26.63
47592;BME280;33317;33.356;-117.184;2022-07-10T07:16:46;99468.07;;;28.20;26.61
47592;BME280;33317;33.356;-117.184;2022-07-10T07:19:19;99469.17;;;28.17;26.70
47592;BME280;33317;33.356;-117.184;2022-07-10T07:21:47;99471.36;;;28.43;26.62
47592;BME280;33317;33.356;-117.184;2022-07-10T07:24:16;99468.39;;;28.15;26.72
47592;BME280;33317;33.356;-117.184;2022-07-10T07:26:44;99466.41;;;28.15;26.69
47592;BME280;33317;33.356;-117.184;2022-07-10T07:29:13;99468.16;;;28.13;26.75
47592;BME280;33317;33.356;-117.184;2022-07-10T07:31:42;99471.09;;;28.12;26.76
47592;BME280;33317;33.356;-117.184;2022-07-10T07:34:10;99474.24;;;28.10;26.81
47592;BME280;33317;33.356;-117.184;2022-07-10T07:36:39;99473.99;;;28.34;26.85
47592;BME280;33317;33.356;-117.184;2022-07-10T07:39:07;99474.11;;;28.09;26.86
47592;BME280;33317;33.356;-117.184;2022-07-10T07:41:36;99476.58;;;28.15;26.76
47592;BME280;33317;33.356;-117.184;2022-07-10T07:44:04;99473.59;;;28.39;26.81
47592;BME280;33317;33.356;-117.184;2022-07-10T07:46:33;99467.86;;;28.13;26.89
47592;BME280;33317;33.356;-117.184;2022-07-10T07:49:01;99468.70;;;28.14;26.79
47592;BME280;33317;33.356;-117.184;2022-07-10T07:51:29;99469.89;;;28.16;26.82
47592;BME280;33317;33.356;-117.184;2022-07-10T07:53:58;99470.76;;;28.13;26.90
47592;BME280;33317;33.356;-117.184;2022-07-10T07:56:26;99469.17;;;28.18;27.17
47592;BME280;33317;33.356;-117.184;2022-07-10T07:58:55;99467.57;;;28.25;26.90
47592;BME280;33317;33.356;-117.184;2022-07-10T08:01:24;99465.09;;;28.26;26.87
47592;BME280;33317;33.356;-117.184;2022-07-10T08:03:52;99464.45;;;28.22;26.99
47592;BME280;33317;33.356;-117.184;2022-07-10T08:06:21;99459.51;;;28.24;27.00
47592;BME280;33317;33.356;-117.184;2022-07-10T08:08:49;99457.54;;;28.19;26.92
47592;BME280;33317;33.356;-117.184;2022-07-10T08:11:18;99456.36;;;28.59;27.11
47592;BME280;33317;33.356;-117.184;2022-07-10T08:13:46;99457.54;;;28.37;27.04
47592;BME280;33317;33.356;-117.184;2022-07-10T08:16:14;99457.92;;;28.14;27.09
47592;BME280;33317;33.356;-117.184;2022-07-10T08:18:43;99457.12;;;28.40;27.02
47592;BME280;33317;33.356;-117.184;2022-07-10T08:21:11;99457.33;;;28.14;27.18
47592;BME280;33317;33.356;-117.184;2022-07-10T08:23:40;99454.06;;;28.14;27.10
47592;BME280;33317;33.356;-117.184;2022-07-10T08:26:13;99454.57;;;28.35;27.08
47592;BME280;33317;33.356;-117.184;2022-07-10T08:28:41;99456.95;;;28.09;27.00
47592;BME280;33317;33.356;-117.184;2022-07-10T08:31:10;99459.15;;;28.04;27.21
47592;BME280;33317;33.356;-117.184;2022-07-10T08:33:38;99455.04;;;28.06;27.23
47592;BME280;33317;33.356;-117.184;2022-07-10T08:36:07;99452.18;;;28.11;27.23
47592;BME280;33317;33.356;-117.184;2022-07-10T08:38:35;99449.17;;;28.13;27.12
47592;BME280;33317;33.356;-117.184;2022-07-10T08:41:06;99447.23;;;28.16;27.13
47592;BME280;33317;33.356;-117.184;2022-07-10T08:43:34;99443.67;;;28.20;27.10
47592;BME280;33317;33.356;-117.184;2022-07-10T08:46:02;99444.86;;;28.19;27.13
47592;BME280;33317;33.356;-117.184;2022-07-10T08:48:32;99444.27;;;28.20;27.14
47592;BME280;33317;33.356;-117.184;2022-07-10T08:51:06;99439.55;;;28.05;27.06
47592;BME280;33317;33.356;-117.184;2022-07-10T08:53:35;99438.06;;;28.56;27.09
47592;BME280;33317;33.356;-117.184;2022-07-10T08:56:07;99442.15;;;28.56;26.97
47592;BME280;33317;33.356;-117.184;2022-07-10T08:58:36;99447.87;;;28.27;27.09
47592;BME280;33317;33.356;-117.184;2022-07-10T09:01:04;99449.98;;;28.32;26.98
47592;BME280;33317;33.356;-117.184;2022-07-10T09:03:32;99446.49;;;28.30;27.01
47592;BME280;33317;33.356;-117.184;2022-07-10T09:06:01;99442.20;;;28.34;27.15
47592;BME280;33317;33.356;-117.184;2022-07-10T09:08:29;99440.42;;;28.36;27.13
47592;BME280;33317;33.356;-117.184;2022-07-10T09:11:14;99442.98;;;28.17;27.12
47592;BME280;33317;33.356;-117.184;2022-07-10T09:13:51;99437.92;;;28.41;27.03
47592;BME280;33317;33.356;-117.184;2022-07-10T09:16:29;99436.87;;;28.42;27.22
47592;BME280;33317;33.356;-117.184;2022-07-10T09:18:58;99436.86;;;28.44;27.18
47592;BME280;33317;33.356;-117.184;2022-07-10T09:21:42;99433.10;;;28.46;27.19
47592;BME280;33317;33.356;-117.184;2022-07-10T09:24:11;99432.10;;;28.47;27.04
47592;BME280;33317;33.356;-117.184;2022-07-10T09:26:40;99435.52;;;28.44;27.03
47592;BME280;33317;33.356;-117.184;2022-07-10T09:29:09;99435.32;;;28.40;27.26
47592;BME280;33317;33.356;-117.184;2022-07-10T09:31:55;99434.75;;;28.39;27.30
47592;BME280;33317;33.356;-117.184;2022-07-10T09:34:40;99432.96;;;28.37;27.33
47592;BME280;33317;33.356;-117.184;2022-07-10T09:37:26;99429.81;;;28.35;27.17
47592;BME280;33317;33.356;-117.184;2022-07-10T09:39:58;99429.77;;;28.24;27.15
47592;BME280;33317;33.356;-117.184;2022-07-10T09:42:28;99426.34;;;28.19;27.29
47592;BME280;33317;33.356;-117.184;2022-07-10T09:45:17;99428.55;;;28.17;27.32
47592;BME280;33317;33.356;-117.184;2022-07-10T09:47:54;99429.06;;;28.17;27.51
47592;BME280;33317;33.356;-117.184;2022-07-10T09:50:24;99425.70;;;28.13;27.49
47592;BME280;33317;33.356;-117.184;2022-07-10T09:52:54;99421.49;;;28.19;27.56
47592;BME280;33317;33.356;-117.184;2022-07-10T09:55:24;99416.04;;;28.16;27.48
47592;BME280;33317;33.356;-117.184;2022-07-10T09:57:56;99405.99;;;28.37;27.56
47592;BME280;33317;33.356;-117.184;2022-07-10T10:00:26;99399.07;;;28.01;27.61
47592;BME280;33317;33.356;-117.184;2022-07-10T10:02:57;99397.25;;;28.25;27.70
47592;BME280;33317;33.356;-117.184;2022-07-10T10:05:34;99396.51;;;28.10;27.81
47592;BME280;33317;33.356;-117.184;2022-07-10T10:08:10;99394.84;;;28.07;28.07
47592;BME280;33317;33.356;-117.184;2022-07-10T10:10:43;99396.58;;;27.51;28.24
47592;BME280;33317;33.356;-117.184;2022-07-10T10:13:14;99397.45;;;27.83;28.06
47592;BME280;33317;33.356;-117.184;2022-07-10T10:15:44;99395.37;;;27.99;28.00
47592;BME280;33317;33.356;-117.184;2022-07-10T10:18:17;99392.08;;;27.77;27.99
47592;BME280;33317;33.356;-117.184;2022-07-10T10:20:46;99391.45;;;27.80;27.98
47592;BME280;33317;33.356;-117.184;2022-07-10T10:23:20;99388.10;;;27.83;27.92
47592;BME280;33317;33.356;-117.184;2022-07-10T10:25:49;99385.19;;;27.50;28.04
47592;BME280;33317;33.356;-117.184;2022-07-10T10:28:20;99385.70;;;27.67;28.03
47592;BME280;33317;33.356;-117.184;2022-07-10T10:30:50;99389.96;;;27.85;28.19
47592;BME280;33317;33.356;-117.184;2022-07-10T10:33:58;99390.44;;;27.84;28.10
47592;BME280;33317;33.356;-117.184;2022-07-10T10:36:58;99391.73;;;27.85;28.19
47592;BME280;33317;33.356;-117.184;2022-07-10T10:39:26;99394.06;;;27.66;28.17
47592;BME280;33317;33.356;-117.184;2022-07-10T10:41:55;99396.20;;;27.83;28.20
47592;BME280;33317;33.356;-117.184;2022-07-10T10:44:26;99394.22;;;27.77;28.39
47592;BME280;33317;33.356;-117.184;2022-07-10T10:46:58;99397.60;;;27.56;28.58
47592;BME280;33317;33.356;-117.184;2022-07-10T10:49:46;99402.11;;;27.68;28.59
47592;BME280;33317;33.356;-117.184;2022-07-10T10:52:16;99401.75;;;27.67;28.50
47592;BME280;33317;33.356;-117.184;2022-07-10T10:55:16;99400.87;;;27.40;28.68
47592;BME280;33317;33.356;-117.184;2022-07-10T10:57:45;99397.29;;;27.37;28.66
47592;BME280;33317;33.356;-117.184;2022-07-10T11:00:30;99397.15;;;27.57;28.69
47592;BME280;33317;33.356;-117.184;2022-07-10T11:03:14;99394.90;;;27.70;28.61
47592;BME280;33317;33.356;-117.184;2022-07-10T11:05:44;99395.92;;;27.33;28.33
47592;BME280;33317;33.356;-117.184;2022-07-10T11:08:14;99397.84;;;27.85;28.27
47592;BME280;33317;33.356;-117.184;2022-07-10T11:10:43;99398.02;;;27.61;28.26
47592;BME280;33317;33.356;-117.184;2022-07-10T11:13:13;99398.08;;;27.60;28.22
47592;BME280;33317;33.356;-117.184;2022-07-10T11:15:43;99401.48;;;27.54;28.35
47592;BME280;33317;33.356;-117.184;2022-07-10T11:18:13;99405.57;;;27.53;28.22
47592;BME280;33317;33.356;-117.184;2022-07-10T11:20:43;99406.89;;;27.76;28.26
47592;BME280;33317;33.356;-117.184;2022-07-10T11:23:58;99408.00;;;27.75;28.31
47592;BME280;33317;33.356;-117.184;2022-07-10T11:26:36;99408.40;;;27.54;28.27
47592;BME280;33317;33.356;-117.184;2022-07-10T11:29:09;99407.96;;;27.16;28.56
47592;BME280;33317;33.356;-117.184;2022-07-10T11:31:38;99410.14;;;27.59;28.64
47592;BME280;33317;33.356;-117.184;2022-07-10T11:34:07;99404.51;;;27.62;28.69
47592;BME280;33317;33.356;-117.184;2022-07-10T11:36:37;99407.22;;;27.61;28.69
47592;BME280;33317;33.356;-117.184;2022-07-10T11:39:08;99406.79;;;27.32;28.83
47592;BME280;33317;33.356;-117.184;2022-07-10T11:41:44;99406.96;;;27.36;28.81
47592;BME280;33317;33.356;-117.184;2022-07-10T11:44:15;99408.39;;;27.58;28.86
47592;BME280;33317;33.356;-117.184;2022-07-10T11:46:44;99412.12;;;27.57;28.81
47592;BME280;33317;33.356;-117.184;2022-07-10T11:49:13;99413.52;;;27.55;28.92
47592;BME280;33317;33.356;-117.184;2022-07-10T11:51:42;99416.06;;;27.51;28.91
47592;BME280;33317;33.356;-117.184;2022-07-10T11:54:14;99418.06;;;27.36;28.80
47592;BME280;33317;33.356;-117.184;2022-07-10T11:56:48;99416.82;;;27.50;28.60
47592;BME280;33317;33.356;-117.184;2022-07-10T11:59:17;99411.13;;;27.53;28.59
47592;BME280;33317;33.356;-117.184;2022-07-10T12:01:46;99408.45;;;27.54;28.50
47592;BME280;33317;33.356;-117.184;2022-07-10T12:04:17;99411.17;;;27.53;28.62
47592;BME280;33317;33.356;-117.184;2022-07-10T12:06:47;99413.37;;;27.54;28.35
47592;BME280;33317;33.356;-117.184;2022-07-10T12:09:18;99413.66;;;27.80;28.39
47592;BME280;33317;33.356;-117.184;2022-07-10T12:11:59;99418.53;;;27.33;28.40
47592;BME280;33317;33.356;-117.184;2022-07-10T12:14:28;99422.21;;;27.83;28.45
47592;BME280;33317;33.356;-117.184;2022-07-10T12:16:58;99419.69;;;27.32;28.31
47592;BME280;33317;33.356;-117.184;2022-07-10T12:19:29;99419.41;;;27.59;28.54
47592;BME280;33317;33.356;-117.184;2022-07-10T12:21:59;99426.07;;;27.55;28.53
47592;BME280;33317;33.356;-117.184;2022-07-10T12:24:27;99425.50;;;27.46;28.80
47592;BME280;33317;33.356;-117.184;2022-07-10T12:26:56;99424.08;;;27.65;28.79
47592;BME280;33317;33.356;-117.184;2022-07-10T12:29:26;99426.24;;;27.62;28.98
47592;BME280;33317;33.356;-117.184;2022-07-10T12:32:00;99425.76;;;27.41;28.81
47592;BME280;33317;33.356;-117.184;2022-07-10T12:34:38;99426.98;;;27.64;28.83
47592;BME280;33317;33.356;-117.184;2022-07-10T12:37:09;99428.56;;;27.59;28.84
47592;BME280;33317;33.356;-117.184;2022-07-10T12:41:07;99431.41;;;28.08;28.90
47592;BME280;33317;33.356;-117.184;2022-07-10T12:43:37;99433.38;;;27.51;28.87
47592;BME280;33317;33.356;-117.184;2022-07-10T12:46:11;99435.06;;;27.74;28.74
47592;BME280;33317;33.356;-117.184;2022-07-10T12:48:40;99440.47;;;27.56;28.63
47592;BME280;33317;33.356;-117.184;2022-07-10T12:51:26;99446.33;;;27.76;28.68